Time;durP1;ratioP1;P1;durP2;ratioP2;P2;SDS_P1;SDS_P2;PMS_P1;PMS_P2;Temp;Humidity;BMP_temperature;BMP_pressure;BME280_temperature;BME280_humidity;BME280_pressure;Samples;Min_cycle;Max_cycle;Signal;HPM_P1;HPM_P2
2022/08/28 00:00:42;;;;;;;0.47;0.47;;;;;;;16.63;66.92;100777.41;4897863;29;20044;-74
2022/08/28 00:03:10;;;;;;;1.33;0.70;;;;;;;16.51;66.70;100775.91;4882785;29;20042;-73
2022/08/28 00:05:38;;;;;;;1.08;0.73;;;;;;;16.44;67.20;100772.72;4916545;29;20087;-72
2022/08/28 00:08:04;;;;;;;1.63;0.60;;;;;;;16.42;67.42;100774.94;4913701;29;20364;-73
2022/08/28 00:10:30;;;;;;;0.85;0.70;;;;;;;16.47;67.20;100779.56;4915013;29;20032;-74
2022/08/28 00:12:56;;;;;;;0.93;0.52;;;;;;;16.56;66.98;100784.13;4915101;29;20110;-74
2022/08/28 00:15:31;;;;;;;0.85;0.60;;;;;;;16.68;67.08;100782.88;4917992;29;20043;-74
2022/08/28 00:17:57;;;;;;;1.80;1.00;;;;;;;16.80;66.99;100777.72;4915223;29;21140;-72
2022/08/28 00:20:24;;;;;;;1.33;0.90;;;;;;;16.89;67.11;100775.97;4915980;29;20102;-72
2022/08/28 00:22:50;;;;;;;1.77;1.15;;;;;;;17.00;67.15;100781.31;4915233;29;20060;-72
2022/08/28 00:25:17;;;;;;;1.23;0.80;;;;;;;16.97;66.50;100781.91;4898070;29;20032;-73
2022/08/28 00:27:51;;;;;;;1.58;1.10;;;;;;;16.91;67.58;100790.28;4915367;29;20119;-72
2022/08/28 00:30:18;;;;;;;;;;;;;;;16.75;68.17;100781.38;4914240;29;20136;-72
2022/08/28 00:32:44;;;;;;;2.50;1.63;;;;;;;16.60;68.31;100778.03;4915618;29;19911;-71
2022/08/28 00:35:11;;;;;;;3.88;1.60;;;;;;;16.46;68.93;100783.47;4889023;29;20032;-73
2022/08/28 00:37:38;;;;;;;1.90;1.27;;;;;;;16.33;69.53;100785.00;4905579;29;20032;-73
2022/08/28 00:40:06;;;;;;;1.95;1.25;;;;;;;16.21;70.00;100791.78;4915917;29;20048;-74
2022/08/28 00:42:35;;;;;;;1.42;1.13;;;;;;;16.13;69.85;100797.13;4898239;29;20119;-73
2022/08/28 00:45:00;;;;;;;1.13;1.00;;;;;;;16.04;70.55;100796.94;4900999;29;20111;-73
2022/08/28 00:47:27;;;;;;;0.90;0.80;;;;;;;15.98;70.27;100806.41;4898511;29;20119;-72
2022/08/28 00:49:54;;;;;;;3.00;1.60;;;;;;;15.90;71.42;100804.28;4898991;29;20067;-72
2022/08/28 00:52:22;;;;;;;2.83;2.00;;;;;;;15.81;71.64;100791.16;4914982;29;20028;-72
2022/08/28 00:54:54;;;;;;;3.13;1.30;;;;;;;15.77;71.75;100801.09;4896066;29;20075;-73
2022/08/28 00:57:33;;;;;;;1.40;1.20;;;;;;;15.65;71.71;100792.38;4897327;29;20042;-72
2022/08/28 00:59:59;;;;;;;5.03;1.58;;;;;;;15.61;72.19;100803.16;4913739;29;20063;-71
2022/08/28 01:02:25;;;;;;;1.45;1.15;;;;;;;15.56;72.51;100796.88;4911374;29;20474;-71
2022/08/28 01:04:50;;;;;;;1.17;0.90;;;;;;;15.51;72.68;100812.34;4885561;29;20032;-74
2022/08/28 01:07:16;;;;;;;3.72;1.40;;;;;;;15.48;73.03;100810.19;4880619;29;20107;-70
2022/08/28 01:09:47;;;;;;;2.03;1.48;;;;;;;15.63;72.91;100811.16;4893219;29;20040;-70
2022/08/28 01:12:23;;;;;;;1.77;1.27;;;;;;;15.79;72.49;100814.59;4912957;29;20044;-71
2022/08/28 01:14:52;;;;;;;2.00;1.50;;;;;;;15.92;71.95;100810.34;4909142;29;20054;-73
2022/08/28 01:17:22;;;;;;;1.50;1.05;;;;;;;15.99;71.64;100808.03;4893883;29;20143;-72
2022/08/28 01:19:59;;;;;;;2.45;1.17;;;;;;;16.01;71.28;100803.88;4914127;29;20075;-72
2022/08/28 01:22:31;;;;;;;0.88;0.88;;;;;;;16.07;71.66;100804.63;4903610;29;20024;-71
2022/08/28 01:24:59;;;;;;;1.52;1.13;;;;;;;16.10;71.47;100793.00;4911053;29;20035;-71
2022/08/28 01:27:25;;;;;;;1.58;1.00;;;;;;;16.14;71.20;100802.34;4894620;29;20070;-72
2022/08/28 01:29:51;;;;;;;1.77;0.90;;;;;;;16.15;71.20;100794.88;4910881;29;20043;-74
2022/08/28 01:32:36;;;;;;;1.27;0.80;;;;;;;16.16;71.16;100791.81;4881170;29;20036;-71
2022/08/28 01:35:04;;;;;;;1.67;1.20;;;;;;;16.19;71.12;100802.28;4913623;29;20083;-71
2022/08/28 01:37:30;;;;;;;1.20;0.93;;;;;;;16.19;71.48;100804.22;4903707;29;20554;-72
2022/08/28 01:39:56;;;;;;;1.70;1.52;;;;;;;16.17;71.26;100804.50;4895677;29;20044;-72
2022/08/28 01:42:23;;;;;;;2.50;1.63;;;;;;;16.17;71.49;100804.50;4891614;29;20122;-73
2022/08/28 01:44:50;;;;;;;1.30;1.20;;;;;;;16.15;71.59;100798.47;4893653;29;20768;-73
2022/08/28 01:47:15;;;;;;;1.40;1.10;;;;;;;16.16;71.66;100807.56;4896223;29;20043;-72
2022/08/28 01:49:41;;;;;;;2.65;1.08;;;;;;;16.14;71.32;100799.59;4893020;29;20040;-73
2022/08/28 01:52:08;;;;;;;1.65;1.40;;;;;;;16.12;71.56;100801.81;4909247;29;20471;-72
2022/08/28 01:54:34;;;;;;;2.40;1.40;;;;;;;16.13;71.86;100799.88;4911512;29;20060;-73
2022/08/28 01:57:00;;;;;;;1.27;1.17;;;;;;;16.11;71.60;100808.44;4905122;29;20032;-72
2022/08/28 01:59:25;;;;;;;1.63;1.20;;;;;;;16.09;71.72;100807.94;4875072;29;20096;-71
2022/08/28 02:01:51;;;;;;;1.92;1.27;;;;;;;16.07;71.72;100815.66;4910116;29;20043;-72
2022/08/28 02:04:16;;;;;;;1.48;1.00;;;;;;;16.04;71.71;100810.75;4915080;29;20432;-72
2022/08/28 02:06:41;;;;;;;3.15;1.42;;;;;;;16.04;72.12;100816.25;4916843;29;20032;-71
2022/08/28 02:09:07;;;;;;;3.25;1.30;;;;;;;15.97;72.08;100816.59;4894023;29;20100;-71
2022/08/28 02:11:33;;;;;;;1.70;1.40;;;;;;;15.98;71.84;100811.91;4901472;29;20043;-71
2022/08/28 02:14:00;;;;;;;0.90;0.85;;;;;;;15.98;72.05;100817.44;4911498;29;20035;-71
2022/08/28 02:16:25;;;;;;;0.82;0.82;;;;;;;15.96;72.22;100814.97;4912493;29;20028;-72
2022/08/28 02:18:52;;;;;;;1.75;1.40;;;;;;;15.90;72.34;100816.13;4896207;29;20475;-72
2022/08/28 02:21:17;;;;;;;1.40;1.20;;;;;;;15.84;72.41;100812.63;4911443;29;20043;-72
2022/08/28 02:23:44;;;;;;;2.78;1.00;;;;;;;15.83;72.53;100813.72;4893525;29;20044;-72
2022/08/28 02:26:11;;;;;;;1.88;1.10;;;;;;;15.80;72.37;100808.81;4922707;29;20658;-72
2022/08/28 02:28:39;;;;;;;0.95;0.88;;;;;;;15.78;72.61;100819.28;4882582;29;20055;-72
2022/08/28 02:31:08;;;;;;;1.40;0.85;;;;;;;15.77;72.66;100822.31;4890567;29;20029;-71
2022/08/28 02:33:38;;;;;;;1.65;1.02;;;;;;;15.71;72.52;100814.09;4895730;29;20040;-71
2022/08/28 02:36:07;;;;;;;1.05;0.73;;;;;;;15.70;72.83;100815.19;4908596;29;20032;-71
2022/08/28 02:38:33;;;;;;;1.05;0.90;;;;;;;15.69;72.44;100812.75;4905024;29;20036;-71
2022/08/28 02:40:58;;;;;;;0.98;0.85;;;;;;;15.71;72.53;100819.63;4894738;29;20028;-71
2022/08/28 02:43:23;;;;;;;1.60;1.10;;;;;;;15.70;72.66;100817.16;4911332;29;20044;-72
2022/08/28 02:45:49;;;;;;;2.20;1.38;;;;;;;15.65;72.73;100825.44;4892499;29;20040;-73
2022/08/28 02:48:14;;;;;;;1.38;1.00;;;;;;;15.63;73.01;100816.66;4896282;29;20036;-72
2022/08/28 02:50:40;;;;;;;1.65;1.20;;;;;;;15.59;72.87;100815.59;4893454;29;20054;-71
2022/08/28 02:53:05;;;;;;;1.30;0.90;;;;;;;15.59;72.89;100816.41;4864660;29;20036;-72
2022/08/28 02:55:31;;;;;;;2.08;0.98;;;;;;;15.54;73.09;100809.00;4898654;29;20028;-71
2022/08/28 02:57:56;;;;;;;1.25;0.98;;;;;;;15.60;73.13;100817.25;4877558;29;20087;-71
2022/08/28 03:00:24;;;;;;;1.45;0.90;;;;;;;15.56;73.04;100816.19;4894149;29;20459;-71
2022/08/28 03:02:50;;;;;;;0.70;0.70;;;;;;;15.53;73.23;100818.38;4892709;29;20035;-71
2022/08/28 03:05:19;;;;;;;1.60;1.13;;;;;;;15.51;73.23;100814.28;4910965;29;20081;-71
2022/08/28 03:07:45;;;;;;;1.02;0.68;;;;;;;15.51;73.58;100826.13;4893045;29;20119;-71
2022/08/28 03:10:11;;;;;;;0.88;0.77;;;;;;;15.48;73.21;100826.72;4889805;29;20120;-71
2022/08/28 03:12:37;;;;;;;0.50;0.50;;;;;;;15.49;73.27;100830.28;4890947;29;20092;-71
2022/08/28 03:15:04;;;;;;;0.80;0.70;;;;;;;15.47;73.35;100824.25;4910736;29;20036;-71
2022/08/28 03:17:30;;;;;;;0.70;0.68;;;;;;;15.44;73.28;100825.66;4901768;29;20036;-72
2022/08/28 03:19:56;;;;;;;0.75;0.75;;;;;;;15.45;73.12;100820.94;4906677;29;20046;-72
2022/08/28 03:23:24;;;;;;;0.75;0.70;;;;;;;15.42;73.03;100824.28;4894691;29;20387;-71
2022/08/28 03:25:07;;;;;;;0.77;0.77;;;;;;;15.42;73.10;100816.84;4909377;29;20028;-71
2022/08/28 03:27:33;;;;;;;1.02;0.70;;;;;;;15.39;73.59;100822.94;4911228;29;20043;-73
2022/08/28 03:29:59;;;;;;;1.70;0.77;;;;;;;15.41;73.58;100831.72;4910410;29;20391;-72
2022/08/28 03:32:25;;;;;;;0.73;0.65;;;;;;;15.43;73.04;100829.50;4897161;29;20482;-72
2022/08/28 03:34:52;;;;;;;1.98;0.80;;;;;;;15.45;73.40;100832.81;4899149;29;20028;-71
2022/08/28 03:37:18;;;;;;;0.85;0.70;;;;;;;15.44;73.05;100824.84;4865185;29;20130;-72
2022/08/28 03:39:43;;;;;;;1.13;0.70;;;;;;;15.40;73.05;100832.84;4897785;29;20141;-71
2022/08/28 03:42:10;;;;;;;0.88;0.77;;;;;;;15.40;72.95;100830.09;4907633;29;20024;-70
2022/08/28 03:44:37;;;;;;;0.70;0.68;;;;;;;15.34;73.31;100823.78;4879537;29;20036;-71
2022/08/28 03:47:03;;;;;;;2.17;0.95;;;;;;;15.38;72.80;100835.06;4897432;29;20039;-71
2022/08/28 03:49:29;;;;;;;0.98;0.70;;;;;;;15.35;73.22;100827.38;4866828;29;20043;-71
2022/08/28 03:51:55;;;;;;;1.30;0.80;;;;;;;15.34;73.23;100831.25;4900612;29;20072;-71
2022/08/28 03:54:21;;;;;;;1.98;1.00;;;;;;;15.31;73.41;100826.31;4914063;29;20746;-71
2022/08/28 03:56:46;;;;;;;1.30;1.10;;;;;;;15.26;73.15;100818.06;4898347;29;20399;-71
2022/08/28 03:59:12;;;;;;;1.58;1.17;;;;;;;15.30;73.58;100824.66;4909420;29;20040;-70
2022/08/28 04:01:37;;;;;;;2.53;1.40;;;;;;;15.28;73.15;100824.13;4898056;29;20136;-71
2022/08/28 04:04:03;;;;;;;3.13;1.42;;;;;;;15.24;73.23;100826.63;4913984;29;20451;-72
2022/08/28 04:06:29;;;;;;;1.05;0.95;;;;;;;15.19;73.44;100824.75;4913814;29;20021;-72
2022/08/28 04:08:55;;;;;;;1.02;0.93;;;;;;;15.19;73.43;100823.94;4912735;29;20036;-71
2022/08/28 04:11:21;;;;;;;1.10;1.00;;;;;;;15.17;nan;100826.97;4896566;29;20074;-71
2022/08/28 04:13:47;;;;;;;1.38;0.95;;;;;;;15.15;73.32;100834.69;4893307;29;20024;-71
2022/08/28 04:16:15;;;;;;;2.05;1.00;;;;;;;15.12;73.39;100839.94;4895432;29;20459;-71
2022/08/28 04:18:41;;;;;;;1.42;0.80;;;;;;;15.05;73.41;100840.25;4891877;29;20029;-71
2022/08/28 04:21:15;;;;;;;1.60;0.80;;;;;;;15.01;73.62;100836.47;4895354;29;20028;-71
2022/08/28 04:23:42;;;;;;;0.80;0.80;;;;;;;14.99;73.68;100830.41;4910525;29;20045;-72
2022/08/28 04:26:10;;;;;;;0.98;0.88;;;;;;;14.97;73.50;100832.63;4896721;29;20123;-71
2022/08/28 04:28:35;;;;;;;1.65;0.70;;;;;;;14.94;73.67;100838.72;4896870;29;20024;-71
2022/08/28 04:31:01;;;;;;;0.70;0.70;;;;;;;14.92;73.91;100832.66;4895784;29;20493;-71
2022/08/28 04:33:29;;;;;;;0.85;0.40;;;;;;;14.94;73.90;100827.69;4913767;29;20036;-71
2022/08/28 04:35:55;;;;;;;0.63;0.52;;;;;;;14.93;73.62;100831.56;4896354;29;20075;-71
2022/08/28 04:38:21;;;;;;;0.70;0.55;;;;;;;14.89;73.85;100827.72;4897147;29;20048;-71
2022/08/28 04:40:47;;;;;;;2.03;0.93;;;;;;;14.88;73.77;100832.41;4912737;29;20030;-72
2022/08/28 04:43:12;;;;;;;1.25;0.70;;;;;;;14.89;74.12;100835.97;4893938;29;20365;-72
2022/08/28 04:45:40;;;;;;;1.00;0.73;;;;;;;14.91;73.87;100833.75;4885810;29;20044;-72
2022/08/28 04:48:06;;;;;;;1.30;0.60;;;;;;;14.98;73.23;100828.75;4912619;29;20028;-72
2022/08/28 04:50:32;;;;;;;0.63;0.63;;;;;;;15.01;73.60;100830.97;4915446;29;20551;-72
2022/08/28 04:52:57;;;;;;;1.50;0.82;;;;;;;15.06;72.88;100836.41;4897528;29;20047;-72
2022/08/28 04:55:22;;;;;;;4.15;1.00;;;;;;;15.08;73.05;100844.38;4877169;29;20032;-71
2022/08/28 04:57:48;;;;;;;1.70;0.85;;;;;;;15.06;73.05;100830.91;4908157;29;20055;-71
2022/08/28 05:00:14;;;;;;;1.27;0.90;;;;;;;15.06;73.03;100833.66;4895456;29;20427;-71
2022/08/28 05:02:39;;;;;;;1.02;0.60;;;;;;;15.07;73.33;100837.22;4910098;29;20024;-71
2022/08/28 05:05:05;;;;;;;0.60;0.50;;;;;;;15.05;73.31;100845.78;4877783;29;20487;-71
2022/08/28 05:07:31;;;;;;;0.80;0.80;;;;;;;15.11;73.41;100843.81;4891116;29;20035;-69
2022/08/28 05:09:57;;;;;;;1.77;0.93;;;;;;;15.09;73.21;100835.84;4895249;29;20020;-70
2022/08/28 05:12:22;;;;;;;2.05;1.05;;;;;;;15.09;73.37;100846.84;4897456;29;20035;-70
2022/08/28 05:14:48;;;;;;;1.65;0.77;;;;;;;15.09;73.32;100846.84;4912022;29;20036;-69
2022/08/28 05:17:14;;;;;;;1.05;0.90;;;;;;;15.14;73.58;100855.09;4896258;29;20078;-70
2022/08/28 05:19:40;;;;;;;1.23;0.70;;;;;;;15.17;73.35;100856.44;4894667;29;20478;-71
2022/08/28 05:22:08;;;;;;;1.23;0.90;;;;;;;15.16;73.48;100852.88;4912466;29;20035;-73
2022/08/28 05:24:35;;;;;;;1.23;0.95;;;;;;;15.10;73.57;100847.66;4894817;29;20032;-72
2022/08/28 05:27:01;;;;;;;1.35;1.00;;;;;;;15.10;73.67;100859.53;4906005;29;20028;-74
2022/08/28 05:29:27;;;;;;;1.77;0.93;;;;;;;15.09;73.83;100857.88;4911816;29;20036;-72
2022/08/28 05:31:52;;;;;;;0.85;0.80;;;;;;;15.09;73.90;100855.13;4898955;29;20035;-74
2022/08/28 05:34:19;;;;;;;1.63;1.10;;;;;;;15.04;74.20;100848.81;4910669;29;20055;-74
2022/08/28 05:36:45;;;;;;;2.45;1.05;;;;;;;15.12;74.39;100851.78;4913288;29;20027;-72
2022/08/28 05:39:12;;;;;;;3.22;1.20;;;;;;;15.13;73.87;100855.38;4896814;29;20044;-72
2022/08/28 05:41:40;;;;;;;1.75;0.70;;;;;;;15.14;74.08;100865.28;4894413;29;20036;-72
2022/08/28 05:44:08;;;;;;;1.75;1.02;;;;;;;15.20;74.20;100869.66;4908339;29;20027;-72
2022/08/28 05:46:36;;;;;;;1.20;0.95;;;;;;;15.27;73.78;100869.31;4912416;29;20119;-71
2022/08/28 05:49:02;;;;;;;1.00;0.90;;;;;;;15.27;73.73;100872.06;4913009;29;20060;-71
2022/08/28 05:51:27;;;;;;;1.00;0.80;;;;;;;15.27;73.85;100872.88;4891194;29;20127;-69
2022/08/28 05:53:56;;;;;;;2.08;1.17;;;;;;;15.31;73.92;100881.41;4878336;29;20498;-72
2022/08/28 05:56:31;;;;;;;2.03;1.00;;;;;;;15.33;74.23;100869.00;4895927;29;20054;-73
2022/08/28 05:58:59;;;;;;;1.20;0.80;;;;;;;15.38;73.72;100886.63;4910246;29;20058;-71
2022/08/28 06:01:28;;;;;;;2.22;1.13;;;;;;;15.37;73.64;100880.25;4896419;29;20032;-74
2022/08/28 06:03:59;;;;;;;1.67;1.20;;;;;;;15.47;73.61;100890.38;4896718;29;20024;-74
2022/08/28 06:06:28;;;;;;;1.80;1.20;;;;;;;15.54;73.49;100896.41;4910546;29;20055;-73
2022/08/28 06:08:58;;;;;;;0.70;0.63;;;;;;;15.61;73.46;100902.41;4911189;29;20700;-73
2022/08/28 06:11:24;;;;;;;0.88;0.80;;;;;;;15.66;73.24;100909.81;4912197;29;20047;-71
2022/08/28 06:13:50;;;;;;;1.67;0.90;;;;;;;15.66;73.31;100901.53;4910913;29;20040;-70
2022/08/28 06:16:15;;;;;;;1.25;0.80;;;;;;;15.69;73.45;100909.22;4896307;29;20038;-70
2022/08/28 06:18:41;;;;;;;1.13;0.80;;;;;;;15.76;73.17;100909.72;4909171;29;20047;-71
2022/08/28 06:21:06;;;;;;;1.25;0.77;;;;;;;15.81;73.20;100906.13;4912447;29;20044;-71
2022/08/28 06:23:32;;;;;;;1.58;0.90;;;;;;;15.87;73.34;100911.31;4917132;29;20455;-70
2022/08/28 06:25:58;;;;;;;1.65;0.80;;;;;;;15.91;73.01;100917.06;4912794;29;20051;-72
2022/08/28 06:28:26;;;;;;;0.98;0.80;;;;;;;15.94;72.87;100896.34;4894869;29;20063;-72
2022/08/28 06:30:53;;;;;;;2.30;0.90;;;;;;;15.99;73.22;100905.41;4910929;29;20028;-70
2022/08/28 06:33:20;;;;;;;1.80;1.05;;;;;;;16.03;72.66;100908.38;4912576;29;20688;-71
2022/08/28 06:35:51;;;;;;;1.48;0.90;;;;;;;16.01;72.89;100905.13;4914453;29;20059;-71
2022/08/28 06:38:18;;;;;;;3.08;1.00;;;;;;;16.01;72.62;100916.16;4910558;29;20028;-71
2022/08/28 06:40:47;;;;;;;1.90;1.10;;;;;;;16.03;72.80;100908.38;4911846;29;20055;-72
2022/08/28 06:43:14;;;;;;;1.25;0.70;;;;;;;16.16;72.86;100917.91;4910005;29;20075;-72
2022/08/28 06:45:41;;;;;;;1.10;0.80;;;;;;;16.26;72.41;100912.28;4914292;29;20096;-73
2022/08/28 06:48:08;;;;;;;2.25;1.15;;;;;;;16.41;72.40;100922.34;4896326;29;20035;-70
2022/08/28 06:50:37;;;;;;;2.28;0.90;;;;;;;16.48;71.67;100920.06;4911877;29;20028;-70
2022/08/28 06:53:03;;;;;;;1.98;0.85;;;;;;;16.57;71.65;100920.22;4913453;29;20028;-71
2022/08/28 06:55:28;;;;;;;0.52;0.50;;;;;;;16.73;71.48;100926.38;4900372;29;20034;-71
2022/08/28 06:57:53;;;;;;;0.90;0.80;;;;;;;16.89;71.30;100925.13;4896948;29;20028;-70
2022/08/28 07:00:19;;;;;;;0.70;0.60;;;;;;;17.04;70.91;100931.53;4911247;29;20064;-71
2022/08/28 07:02:44;;;;;;;1.52;0.68;;;;;;;17.22;70.65;100935.44;4881979;29;20068;-71
2022/08/28 07:05:10;;;;;;;1.45;0.90;;;;;;;17.35;70.26;100933.88;4894261;29;20028;-69
2022/08/28 07:07:35;;;;;;;1.95;1.00;;;;;;;17.45;69.51;100942.03;4913771;29;20035;-71
2022/08/28 07:10:01;;;;;;;2.13;0.93;;;;;;;17.56;69.68;100942.66;4897360;29;20083;-72
2022/08/28 07:12:26;;;;;;;2.38;0.73;;;;;;;17.71;69.49;100934.13;4897219;29;20151;-70
2022/08/28 07:14:52;;;;;;;1.27;0.88;;;;;;;17.88;68.60;100933.56;4908141;29;20036;-71
2022/08/28 07:17:17;;;;;;;1.80;0.80;;;;;;;18.04;68.40;100938.88;4915177;29;20538;-71
2022/08/28 07:19:43;;;;;;;1.80;0.90;;;;;;;18.16;67.40;100939.19;4898240;29;20028;-71
2022/08/28 07:22:08;;;;;;;2.22;0.85;;;;;;;18.31;67.84;100936.16;4914287;29;20032;-71
2022/08/28 07:24:34;;;;;;;2.95;1.08;;;;;;;18.49;66.96;100936.38;4900389;29;20475;-71
2022/08/28 07:27:00;;;;;;;1.30;0.88;;;;;;;18.60;66.60;100940.59;4912463;29;20131;-70
2022/08/28 07:29:25;;;;;;;5.15;1.10;;;;;;;18.77;66.24;100942.72;4915787;29;20374;-71
2022/08/28 07:31:56;;;;;;;1.60;1.13;;;;;;;18.85;65.92;100938.38;4913836;29;20424;-69
2022/08/28 07:34:22;;;;;;;3.33;0.95;;;;;;;19.06;65.21;100943.53;4912404;29;20036;-72
2022/08/28 07:36:50;;;;;;;1.33;0.60;;;;;;;19.26;65.12;100939.47;4895175;29;20040;-71
2022/08/28 07:39:16;;;;;;;2.10;0.55;;;;;;;19.46;64.62;100943.72;4896724;29;20131;-70
2022/08/28 07:41:42;;;;;;;2.10;0.75;;;;;;;19.65;63.54;100949.09;4913456;29;20088;-71
2022/08/28 07:46:56;;;;;;;2.40;0.60;;;;;;;19.83;62.66;100944.50;4900102;29;20050;-70
2022/08/28 07:49:24;;;;;;;1.77;0.77;;;;;;;19.82;62.70;100948.44;4913839;29;20032;-70
2022/08/28 07:51:49;;;;;;;3.83;0.70;;;;;;;19.82;62.55;100954.81;4912557;29;20036;-69
2022/08/28 07:54:16;;;;;;;3.25;0.90;;;;;;;19.87;62.15;100956.63;4894886;29;20039;-71
2022/08/28 07:56:41;;;;;;;2.05;0.75;;;;;;;19.83;62.32;100948.13;4913722;29;20114;-71
2022/08/28 07:59:09;;;;;;;1.90;0.60;;;;;;;19.80;62.27;100948.75;4913189;29;20034;-69
2022/08/28 08:01:38;;;;;;;1.58;0.75;;;;;;;19.75;62.32;100946.06;4913495;29;20039;-71
2022/08/28 08:04:06;;;;;;;1.27;0.73;;;;;;;19.71;62.50;100942.28;4915954;29;20020;-71
2022/08/28 08:06:33;;;;;;;2.30;0.80;;;;;;;19.72;62.52;100949.47;4915506;29;20111;-71
2022/08/28 08:08:59;;;;;;;1.33;0.73;;;;;;;19.72;62.39;100949.47;4896813;29;20067;-72
2022/08/28 08:11:25;;;;;;;2.13;1.15;;;;;;;19.70;62.44;100955.34;4874190;29;20674;-72
2022/08/28 08:13:53;;;;;;;4.28;1.27;;;;;;;19.67;62.38;100947.66;4895417;29;20043;-71
2022/08/28 08:16:22;;;;;;;1.88;0.80;;;;;;;19.66;62.28;100934.91;4878816;29;20565;-72
2022/08/28 08:18:49;;;;;;;3.30;1.02;;;;;;;19.88;61.99;100958.28;4912442;29;20035;-72
2022/08/28 08:21:18;;;;;;;3.67;1.20;;;;;;;20.00;61.73;100947.41;4912087;29;20028;-73
2022/08/28 08:23:43;;;;;;;2.15;0.98;;;;;;;20.34;60.71;100951.53;4906891;29;20458;-71
2022/08/28 08:26:13;;;;;;;1.20;0.38;;;;;;;21.12;59.35;100960.47;4911246;29;20043;-73
2022/08/28 08:28:41;;;;;;;2.25;0.68;;;;;;;21.95;56.73;100953.94;4909676;29;20091;-74
2022/08/28 08:31:16;;;;;;;2.42;0.73;;;;;;;22.72;54.08;100959.59;4908854;29;20391;-69
2022/08/28 08:33:44;;;;;;;3.97;1.08;;;;;;;23.50;51.92;100963.84;4909293;29;20024;-70
2022/08/28 08:36:11;;;;;;;1.40;0.82;;;;;;;24.19;50.59;100969.94;4899733;29;20035;-71
2022/08/28 08:38:37;;;;;;;2.15;0.50;;;;;;;25.07;48.42;100968.84;4894410;29;20052;-72
2022/08/28 08:41:13;;;;;;;2.40;0.60;;;;;;;25.91;46.31;100970.97;4909613;29;20105;-72
2022/08/28 08:44:08;;;;;;;2.67;0.52;;;;;;;26.32;45.16;100981.28;4893053;29;20064;-71
2022/08/28 08:46:39;;;;;;;;;;;;;;;26.75;44.07;100988.00;4879999;29;20222;-72
2022/08/28 08:49:13;;;;;;;1.10;0.55;;;;;;;27.27;42.61;100981.19;4910046;29;19915;-71
2022/08/28 08:51:47;;;;;;;7.07;0.82;;;;;;;27.65;41.71;100988.06;4894740;29;20028;-72
2022/08/28 08:54:17;;;;;;;4.65;0.57;;;;;;;28.08;40.75;100990.97;4911974;29;20043;-74
2022/08/28 08:56:44;;;;;;;1.27;0.57;;;;;;;28.70;40.66;100992.88;4913387;29;20391;-72
2022/08/28 08:59:16;;;;;;;1.40;0.50;;;;;;;29.19;39.17;100980.75;4910968;29;20038;-71
2022/08/28 09:01:49;;;;;;;2.00;0.40;;;;;;;28.94;38.87;100991.63;4895473;29;20024;-73
2022/08/28 09:04:33;;;;;;;2.40;0.60;;;;;;;29.13;38.79;100992.72;4910252;29;20217;-73
2022/08/28 09:07:15;;;;;;;3.23;0.70;;;;;;;29.18;38.32;100978.31;4893341;29;20031;-74
2022/08/28 09:09:45;;;;;;;1.23;0.43;;;;;;;29.24;38.01;100988.09;4891502;29;20282;-72
2022/08/28 09:12:21;;;;;;;1.42;0.43;;;;;;;29.53;38.11;100986.47;4911686;29;20020;-71
2022/08/28 09:15:04;;;;;;;0.73;0.40;;;;;;;30.26;35.89;100990.94;4893738;29;20481;-74
2022/08/28 09:17:36;;;;;;;3.75;0.55;;;;;;;30.58;35.35;100990.44;4900379;29;20115;-72
2022/08/28 09:20:08;;;;;;;1.42;0.60;;;;;;;30.56;34.54;100987.19;4909533;29;20020;-74
2022/08/28 09:22:36;;;;;;;0.80;0.40;;;;;;;30.64;34.96;100984.03;4914487;29;20059;-74
2022/08/28 09:25:02;;;;;;;2.55;0.30;;;;;;;30.81;34.83;100987.38;4894570;29;20085;-75
2022/08/28 09:27:30;;;;;;;0.70;0.50;;;;;;;30.63;34.13;100990.06;4894893;29;20059;-74
2022/08/28 09:30:10;;;;;;;1.92;0.38;;;;;;;30.57;34.29;100983.19;4890635;29;20024;-71
2022/08/28 09:32:43;;;;;;;1.33;0.50;;;;;;;30.92;33.53;100970.53;4908593;29;20387;-72
2022/08/28 09:35:28;;;;;;;0.63;0.28;;;;;;;31.02;33.21;100986.78;4895240;29;20028;-72
2022/08/28 09:37:55;;;;;;;1.15;0.38;;;;;;;30.80;33.33;100978.13;4892370;29;20032;-74
2022/08/28 09:40:25;;;;;;;1.85;0.40;;;;;;;31.04;32.90;100981.53;4894866;29;20569;-74
2022/08/28 09:46:10;;;;;;;0.57;0.38;;;;;;;32.32;30.63;100984.50;4911802;29;20095;-75
2022/08/28 09:48:52;;;;;;;1.00;0.40;;;;;;;32.13;30.87;100977.19;4915262;29;20190;-74
2022/08/28 09:51:20;;;;;;;1.27;0.38;;;;;;;31.85;30.52;100976.69;4894330;29;20036;-74
2022/08/28 09:53:55;;;;;;;4.72;0.50;;;;;;;30.91;31.72;100980.19;4911926;29;21486;-74
2022/08/28 09:56:29;;;;;;;0.80;0.40;;;;;;;30.53;31.49;100977.50;4912598;29;20055;-74
2022/08/28 09:59:02;;;;;;;2.17;0.65;;;;;;;29.95;32.71;100976.13;4913382;29;20032;-75
2022/08/28 10:01:48;;;;;;;1.55;0.40;;;;;;;30.21;32.95;100971.53;4913278;29;20582;-75
2022/08/28 10:04:21;;;;;;;0.82;0.50;;;;;;;30.98;32.50;100968.97;4910870;29;20086;-74
2022/08/28 10:06:59;;;;;;;2.53;0.60;;;;;;;30.42;32.54;100977.41;4911550;29;20036;-74
2022/08/28 10:09:49;;;;;;;0.90;0.55;;;;;;;30.17;32.64;100970.69;4895686;29;20115;-74
2022/08/28 10:12:34;;;;;;;1.73;0.43;;;;;;;30.39;32.63;100952.78;4895701;29;20391;-73
2022/08/28 10:15:20;;;;;;;1.17;0.28;;;;;;;31.77;31.07;100966.56;4910168;29;20107;-72
2022/08/28 10:18:01;;;;;;;3.13;0.43;;;;;;;32.53;30.01;100973.19;4910076;29;20103;-73
2022/08/28 10:20:35;;;;;;;1.10;0.47;;;;;;;33.13;28.36;100967.84;4893137;29;20652;-72
2022/08/28 10:23:16;;;;;;;0.63;0.32;;;;;;;33.35;28.64;100965.81;4909126;29;20126;-71
2022/08/28 10:26:15;;;;;;;4.10;0.77;;;;;;;34.02;27.75;100965.06;4906946;29;20182;-71
2022/08/28 10:28:46;;;;;;;1.90;0.52;;;;;;;34.46;27.28;100977.75;4908978;29;20055;-71
2022/08/28 10:31:32;;;;;;;1.95;0.75;;;;;;;33.93;26.30;100974.84;4894912;29;20020;-72
2022/08/28 10:34:07;;;;;;;1.83;0.30;;;;;;;33.16;27.67;100967.06;4910793;29;20356;-71
2022/08/28 10:36:34;;;;;;;0.98;0.50;;;;;;;32.34;27.67;100967.91;4910771;29;20099;-71
2022/08/28 10:38:59;;;;;;;2.40;0.40;;;;;;;31.89;28.83;100967.41;4909649;29;20048;-71
2022/08/28 10:41:36;;;;;;;0.98;0.43;;;;;;;31.65;28.55;100958.44;4909652;29;20024;-72
2022/08/28 10:44:04;;;;;;;1.27;0.45;;;;;;;31.69;29.38;100962.09;4911188;29;20541;-71
2022/08/28 10:46:39;;;;;;;1.77;0.70;;;;;;;31.70;29.41;100963.69;4910126;29;20182;-72
2022/08/28 10:49:25;;;;;;;1.10;0.50;;;;;;;31.58;29.27;100950.75;4896569;29;20072;-73
2022/08/28 10:52:03;;;;;;;0.95;0.47;;;;;;;31.06;29.84;100959.38;4906385;29;20061;-73
2022/08/28 10:54:39;;;;;;;0.80;0.40;;;;;;;31.22;29.96;100961.88;4887048;29;20077;-72
2022/08/28 10:57:10;;;;;;;0.85;0.45;;;;;;;31.36;29.61;100958.31;4911174;29;20083;-72
2022/08/28 10:59:40;;;;;;;0.80;0.40;;;;;;;31.22;29.85;100955.41;4909096;29;20028;-73
2022/08/28 11:02:10;;;;;;;1.75;0.50;;;;;;;31.15;30.56;100950.53;4905956;29;20400;-72
2022/08/28 11:04:35;;;;;;;1.27;0.40;;;;;;;30.90;30.62;100954.00;4913944;29;20123;-73
2022/08/28 11:07:08;;;;;;;0.70;0.60;;;;;;;30.86;30.57;100944.69;4896480;29;20620;-72
2022/08/28 11:10:18;;;;;;;0.75;0.40;;;;;;;31.30;31.14;100948.59;4909657;29;20031;-72
2022/08/28 11:12:44;;;;;;;0.88;0.50;;;;;;;32.24;31.05;100946.06;4894977;29;20127;-73
2022/08/28 11:15:49;;;;;;;0.70;0.43;;;;;;;33.61;29.79;100946.63;4911055;29;20543;-72
2022/08/28 11:18:15;;;;;;;1.85;0.60;;;;;;;34.78;27.98;100956.81;4882402;29;20043;-71
2022/08/28 11:20:57;;;;;;;1.20;0.35;;;;;;;35.87;26.40;100951.47;4910705;29;20431;-71
2022/08/28 11:23:34;;;;;;;0.77;0.40;;;;;;;37.25;24.03;100956.44;4912357;29;20407;-73
2022/08/28 11:26:06;;;;;;;2.67;0.70;;;;;;;38.48;22.08;100957.38;4907957;29;20538;-72
2022/08/28 11:28:35;;;;;;;1.40;0.63;;;;;;;39.90;20.18;100949.28;4910903;29;20035;-72
2022/08/28 11:31:03;;;;;;;1.02;0.50;;;;;;;41.14;19.12;100959.81;4905483;29;20025;-72
2022/08/28 11:33:35;;;;;;;1.92;0.70;;;;;;;43.14;17.67;100951.25;4907546;29;20022;-72
2022/08/28 11:36:01;;;;;;;0.75;0.30;;;;;;;45.49;15.86;100946.03;4912920;29;20035;-73
2022/08/28 11:38:56;;;;;;;2.35;0.70;;;;;;;46.34;13.20;100935.75;4911740;29;20032;-73
2022/08/28 11:41:35;;;;;;;0.35;0.30;;;;;;;47.48;13.67;100932.03;4838874;29;20049;-72